createdAt,value
2017-10-15T00:00:53.432Z,18.57
2017-10-15T00:03:21.252Z,16.85
2017-10-15T00:05:48.788Z,17.47
2017-10-15T00:08:16.460Z,18.37
2017-10-15T00:10:44.424Z,17.20
2017-10-15T00:13:13.662Z,19.37
2017-10-15T00:15:41.232Z,21.43
2017-10-15T00:18:08.781Z,19.10
2017-10-15T00:20:36.327Z,16.73
2017-10-15T00:23:03.941Z,18.30
2017-10-15T00:25:31.488Z,19.10
2017-10-15T00:27:59.027Z,19.77
2017-10-15T00:30:26.597Z,16.90
2017-10-15T00:32:54.145Z,17.57
2017-10-15T00:35:21.692Z,17.65
2017-10-15T00:37:49.255Z,18.17
2017-10-15T00:40:16.796Z,17.97
2017-10-15T00:42:44.335Z,19.93
2017-10-15T00:45:11.963Z,18.90
2017-10-15T00:47:39.508Z,19.37
2017-10-15T00:50:07.044Z,20.83
2017-10-15T00:52:34.604Z,20.97
2017-10-15T00:55:02.138Z,21.10
2017-10-15T00:57:30.445Z,19.33
2017-10-15T00:59:58.043Z,19.27
2017-10-15T01:02:25.584Z,17.87
2017-10-15T01:04:53.884Z,15.93
2017-10-15T01:07:21.472Z,15.45
2017-10-15T01:09:49.784Z,16.63
2017-10-15T01:12:17.669Z,15.17
2017-10-15T01:14:45.236Z,15.13
2017-10-15T01:17:13.697Z,16.23
2017-10-15T01:19:41.232Z,15.67
2017-10-15T01:22:09.559Z,16.40
2017-10-15T01:24:37.088Z,17.23
2017-10-15T01:27:04.623Z,17.57
2017-10-15T01:29:32.229Z,16.73
2017-10-15T01:31:59.774Z,18.13
2017-10-15T01:34:27.311Z,18.43
2017-10-15T01:36:55.643Z,17.60
2017-10-15T01:39:23.184Z,20.90
2017-10-15T01:41:50.730Z,19.73
2017-10-15T01:44:18.287Z,20.00
2017-10-15T01:46:45.824Z,19.50
2017-10-15T01:49:15.459Z,17.00
2017-10-15T01:51:43.055Z,18.40
2017-10-15T01:54:10.588Z,17.47
2017-10-15T01:56:38.152Z,16.70
2017-10-15T01:59:05.726Z,16.77
2017-10-15T02:01:33.268Z,17.15
2017-10-15T02:04:00.803Z,16.23
2017-10-15T02:06:28.415Z,18.58
2017-10-15T02:08:55.948Z,18.00
2017-10-15T02:11:23.488Z,18.67
2017-10-15T02:13:51.324Z,19.03
2017-10-15T02:16:19.630Z,17.30
2017-10-15T02:18:47.176Z,17.10
2017-10-15T02:21:16.474Z,18.50
2017-10-15T02:23:44.012Z,17.73
2017-10-15T02:26:11.547Z,17.85
2017-10-15T02:28:39.120Z,18.00
2017-10-15T02:31:06.663Z,18.93
2017-10-15T02:33:34.201Z,17.87
2017-10-15T02:36:01.801Z,19.33
2017-10-15T02:38:29.341Z,18.03
2017-10-15T02:40:56.892Z,18.80
2017-10-15T02:43:24.463Z,16.93
2017-10-15T02:45:51.996Z,17.57
2017-10-15T02:48:19.545Z,18.23
2017-10-15T02:50:47.135Z,18.43
2017-10-15T02:53:17.424Z,18.50
2017-10-15T02:55:45.721Z,17.43
2017-10-15T02:58:15.475Z,16.80
2017-10-15T03:00:43.016Z,18.60
2017-10-15T03:03:10.557Z,16.43
2017-10-15T03:05:38.125Z,17.30
2017-10-15T03:08:06.424Z,17.43
2017-10-15T03:10:33.954Z,16.27
2017-10-15T03:13:01.523Z,16.35
2017-10-15T03:15:29.059Z,15.90
2017-10-15T03:17:56.604Z,16.07
2017-10-15T03:20:24.187Z,17.00
2017-10-15T03:22:51.885Z,17.53
2017-10-15T03:25:19.532Z,17.77
2017-10-15T03:27:47.149Z,16.40
2017-10-15T03:30:16.369Z,16.37
2017-10-15T03:32:43.930Z,17.27
2017-10-15T03:35:11.540Z,16.50
2017-10-15T03:37:39.084Z,17.23
2017-10-15T03:40:06.620Z,16.50
2017-10-15T03:42:34.200Z,17.27
2017-10-15T03:45:01.737Z,19.03
2017-10-15T03:47:30.036Z,18.23
2017-10-15T03:49:57.609Z,18.12
2017-10-15T03:52:25.152Z,16.93
2017-10-15T03:54:52.680Z,16.87
2017-10-15T03:57:20.252Z,17.98
2017-10-15T03:59:47.788Z,16.17
2017-10-15T04:02:16.436Z,16.77
2017-10-15T04:04:44.020Z,15.70
2017-10-15T04:07:11.567Z,15.70
2017-10-15T04:09:39.108Z,16.10
2017-10-15T04:12:06.671Z,15.80
2017-10-15T04:14:34.207Z,15.90
2017-10-15T04:17:01.879Z,15.87
2017-10-15T04:19:29.457Z,15.43
2017-10-15T04:21:56.988Z,14.57
2017-10-15T04:24:24.519Z,13.62
2017-10-15T04:26:52.121Z,14.60
2017-10-15T04:29:19.652Z,15.20
2017-10-15T04:31:47.188Z,16.33
2017-10-15T04:34:17.255Z,15.90
2017-10-15T04:36:44.780Z,15.63
2017-10-15T04:39:12.323Z,15.60
2017-10-15T04:41:40.656Z,15.40
2017-10-15T04:44:08.192Z,17.67
2017-10-15T04:46:35.737Z,15.27
2017-10-15T04:49:03.352Z,13.67
2017-10-15T04:51:30.891Z,15.43
2017-10-15T04:53:58.420Z,15.13
2017-10-15T04:56:25.974Z,14.67
2017-10-15T04:58:53.510Z,14.60
2017-10-15T05:01:21.824Z,16.05
2017-10-15T05:03:49.392Z,15.97
2017-10-15T05:06:16.931Z,15.10
2017-10-15T05:08:44.467Z,14.15
2017-10-15T05:11:12.213Z,14.80
2017-10-15T05:13:39.753Z,14.63
2017-10-15T05:16:07.304Z,15.23
2017-10-15T05:18:35.184Z,13.97
2017-10-15T05:21:02.721Z,14.50
2017-10-15T05:23:30.264Z,15.03
2017-10-15T05:25:57.827Z,14.80
2017-10-15T05:28:25.367Z,14.97
2017-10-15T05:30:53.663Z,15.17
2017-10-15T05:33:21.312Z,13.80
2017-10-15T05:35:48.856Z,14.60
2017-10-15T05:38:17.163Z,15.97
2017-10-15T05:40:44.743Z,15.97
2017-10-15T05:43:12.276Z,15.50
2017-10-15T05:45:39.816Z,17.07
2017-10-15T05:48:08.139Z,16.27
2017-10-15T05:50:35.669Z,14.57
2017-10-15T05:53:03.970Z,14.93
2017-10-15T05:55:31.544Z,16.05
2017-10-15T05:57:59.072Z,15.60
2017-10-15T06:00:27.455Z,16.33
2017-10-15T06:02:55.025Z,18.87
2017-10-15T06:05:22.580Z,14.80
2017-10-15T06:07:50.121Z,16.87
2017-10-15T06:10:17.683Z,16.60
2017-10-15T06:12:45.225Z,16.13
2017-10-15T06:15:14.452Z,16.40
2017-10-15T06:17:42.067Z,15.87
2017-10-15T06:20:09.978Z,16.90
2017-10-15T06:22:37.519Z,15.52
2017-10-15T06:25:05.840Z,15.30
2017-10-15T06:27:33.376Z,16.40
2017-10-15T06:30:00.921Z,14.27
2017-10-15T06:32:28.497Z,15.32
2017-10-15T06:34:56.036Z,15.10
2017-10-15T06:37:24.338Z,14.17
2017-10-15T06:39:51.928Z,13.20
2017-10-15T06:42:19.466Z,14.75
2017-10-15T06:44:46.991Z,17.73
2017-10-15T06:47:25.332Z,17.75
2017-10-15T06:52:33.744Z,17.30
2017-10-15T06:55:02.043Z,18.57
2017-10-15T06:57:29.580Z,16.27
2017-10-15T06:59:57.937Z,14.47
2017-10-15T07:02:25.471Z,15.17
2017-10-15T07:04:52.999Z,16.30
2017-10-15T07:07:20.604Z,16.30
2017-10-15T07:09:48.136Z,16.70
2017-10-15T07:12:17.221Z,14.40
2017-10-15T07:14:44.776Z,16.57
2017-10-15T07:17:12.316Z,15.97
2017-10-15T07:19:40.625Z,16.80
2017-10-15T07:22:15.125Z,15.13
2017-10-15T07:24:42.720Z,14.70
2017-10-15T07:27:10.272Z,16.80
2017-10-15T07:29:37.831Z,13.20
2017-10-15T07:32:05.370Z,10.40
2017-10-15T07:34:32.903Z,10.13
2017-10-15T07:37:00.488Z,10.13
2017-10-15T07:39:28.029Z,9.00
2017-10-15T07:41:55.576Z,8.80
2017-10-15T07:44:23.163Z,9.13
2017-10-15T07:46:50.703Z,8.90
2017-10-15T07:49:19.008Z,8.57
2017-10-15T07:51:46.588Z,7.87
2017-10-15T07:54:25.262Z,8.35
2017-10-15T07:59:39.284Z,7.17
2017-10-15T08:02:06.807Z,6.80
2017-10-15T08:04:34.599Z,6.10
2017-10-15T08:07:02.171Z,6.00
2017-10-15T08:09:29.710Z,6.10
2017-10-15T08:11:57.240Z,6.17
2017-10-15T08:14:25.564Z,6.00
2017-10-15T08:16:53.105Z,6.43
2017-10-15T08:19:20.636Z,5.50
2017-10-15T08:21:48.249Z,5.00
2017-10-15T08:24:17.488Z,5.40
2017-10-15T08:26:45.792Z,5.50
2017-10-15T08:29:25.572Z,5.28
2017-10-15T08:40:43.931Z,5.40
2017-10-15T08:43:11.464Z,5.62
2017-10-15T08:45:39.007Z,5.73
2017-10-15T08:48:06.567Z,5.50
2017-10-15T08:50:34.115Z,6.10
2017-10-15T08:53:01.651Z,5.40
2017-10-15T08:55:29.212Z,4.97
2017-10-15T08:57:56.743Z,4.03
2017-10-15T09:00:24.276Z,4.55
2017-10-15T09:02:51.865Z,4.40
2017-10-15T09:05:19.411Z,4.53
2017-10-15T09:07:47.717Z,4.07
2017-10-15T09:10:17.348Z,4.20
2017-10-15T09:12:44.896Z,4.20
2017-10-15T09:15:12.422Z,4.10
2017-10-15T09:17:40.875Z,4.10
2017-10-15T09:20:08.420Z,3.90
2017-10-15T09:22:35.956Z,4.37
2017-10-15T09:25:04.662Z,3.58
2017-10-15T09:27:39.930Z,3.70
2017-10-15T09:30:07.503Z,3.90
2017-10-15T09:32:35.809Z,4.07
2017-10-15T09:35:03.343Z,4.70
2017-10-15T09:37:31.029Z,4.25
2017-10-15T09:39:58.568Z,3.97
2017-10-15T09:42:26.107Z,4.17
2017-10-15T09:44:54.048Z,4.10
2017-10-15T09:47:21.586Z,3.93
2017-10-15T09:49:50.101Z,3.87
2017-10-15T09:52:17.692Z,4.10
2017-10-15T09:54:45.991Z,3.80
2017-10-15T09:57:15.395Z,3.83
2017-10-15T09:59:42.970Z,3.83
2017-10-15T10:02:10.512Z,4.23
2017-10-15T10:04:38.060Z,3.90
2017-10-15T10:07:06.433Z,4.93
2017-10-15T10:09:33.963Z,4.23
2017-10-15T10:12:01.502Z,4.70
2017-10-15T10:14:29.075Z,4.60
2017-10-15T10:16:56.633Z,4.63
2017-10-15T10:19:24.174Z,5.57
2017-10-15T10:21:51.733Z,5.00
2017-10-15T10:24:19.283Z,5.53
2017-10-15T10:26:47.329Z,5.07
2017-10-15T10:29:17.313Z,4.85
2017-10-15T10:31:44.852Z,4.77
2017-10-15T10:34:12.399Z,5.50
2017-10-15T10:36:39.960Z,5.90
2017-10-15T10:39:07.500Z,5.60
2017-10-15T10:41:35.520Z,6.10
2017-10-15T10:44:03.084Z,5.97
2017-10-15T10:46:30.607Z,6.35
2017-10-15T10:48:58.132Z,6.30
2017-10-15T10:51:26.483Z,5.78
2017-10-15T10:53:54.021Z,6.50
2017-10-15T10:56:21.555Z,6.00
2017-10-15T10:58:49.121Z,5.60
2017-10-15T11:01:16.663Z,6.13
2017-10-15T11:03:44.196Z,4.90
2017-10-15T11:06:11.760Z,5.63
2017-10-15T11:08:39.296Z,5.70
2017-10-15T11:11:06.853Z,6.63
2017-10-15T11:13:34.463Z,6.10
2017-10-15T11:16:02.012Z,5.47
2017-10-15T11:18:29.543Z,5.93
2017-10-15T11:20:57.096Z,6.10
2017-10-15T11:23:24.637Z,6.07
2017-10-15T11:25:52.185Z,6.40
2017-10-15T11:28:20.255Z,5.40
2017-10-15T11:30:48.094Z,5.70
2017-10-15T11:33:16.484Z,5.43
2017-10-15T11:35:44.067Z,5.40
2017-10-15T11:38:11.596Z,5.53
2017-10-15T11:40:39.149Z,5.63
2017-10-15T11:43:07.488Z,5.17
2017-10-15T11:45:35.035Z,5.60
2017-10-15T11:48:02.568Z,5.20
2017-10-15T11:50:30.163Z,4.80
2017-10-15T11:52:57.704Z,5.30
2017-10-15T11:55:25.232Z,5.50
2017-10-15T11:57:52.823Z,5.57
2017-10-15T12:00:20.352Z,5.57
2017-10-15T12:02:47.895Z,6.10
2017-10-15T12:05:16.459Z,5.65
2017-10-15T12:07:44.364Z,4.83
2017-10-15T12:10:11.896Z,5.80
2017-10-15T12:12:39.447Z,6.23
2017-10-15T12:15:07.131Z,5.10
2017-10-15T12:17:34.672Z,5.07
2017-10-15T12:20:02.714Z,5.73
2017-10-15T12:22:30.239Z,5.30
2017-10-15T12:24:57.780Z,5.30
2017-10-15T12:27:25.331Z,5.40
2017-10-15T12:29:53.000Z,5.63
2017-10-15T12:32:20.535Z,5.43
2017-10-15T12:34:48.107Z,5.20
2017-10-15T12:37:16.384Z,5.07
2017-10-15T12:39:43.915Z,6.00
2017-10-15T12:42:11.496Z,5.60
2017-10-15T12:44:39.032Z,5.77
2017-10-15T12:47:06.555Z,5.33
2017-10-15T12:49:34.115Z,6.80
2017-10-15T12:52:01.646Z,6.10
2017-10-15T12:54:29.187Z,7.50
2017-10-15T12:56:56.747Z,7.57
2017-10-15T12:59:24.287Z,7.40
2017-10-15T13:01:51.816Z,8.13
2017-10-15T13:04:19.408Z,9.13
2017-10-15T13:06:47.716Z,9.53
2017-10-15T13:09:16.496Z,9.15
2017-10-15T13:11:44.069Z,8.37
2017-10-15T13:14:11.595Z,8.87
2017-10-15T13:16:39.126Z,8.00
2017-10-15T13:19:06.714Z,8.23
2017-10-15T13:21:34.464Z,8.60
2017-10-15T13:24:01.992Z,9.00
2017-10-15T13:26:29.592Z,8.25
2017-10-15T13:28:57.127Z,8.90
2017-10-15T13:31:25.076Z,8.80
2017-10-15T13:33:52.635Z,8.70
2017-10-15T13:36:20.932Z,8.50
2017-10-15T13:38:48.471Z,7.00
2017-10-15T13:41:16.407Z,7.33
2017-10-15T13:43:43.941Z,7.93
2017-10-15T13:46:11.483Z,8.20
2017-10-15T13:48:39.077Z,7.80
2017-10-15T13:51:06.603Z,6.70
2017-10-15T13:53:34.140Z,6.93
2017-10-15T13:56:02.465Z,6.80
2017-10-15T13:58:29.999Z,7.63
2017-10-15T14:00:57.603Z,7.72
2017-10-15T14:03:25.155Z,7.00
2017-10-15T14:05:53.245Z,6.63
2017-10-15T14:08:20.779Z,7.17
2017-10-15T14:10:48.380Z,7.10
2017-10-15T14:13:16.435Z,6.30
2017-10-15T14:15:43.963Z,7.00
2017-10-15T14:18:11.524Z,6.40
2017-10-15T14:20:39.059Z,6.63
2017-10-15T14:23:06.588Z,6.63
2017-10-15T14:25:34.159Z,6.63
2017-10-15T14:28:02.469Z,7.13
2017-10-15T14:30:30.008Z,6.27
2017-10-15T14:32:58.775Z,6.62
2017-10-15T14:35:26.312Z,7.45
2017-10-15T14:37:53.847Z,8.80
2017-10-15T14:40:22.175Z,6.80
2017-10-15T14:42:50.463Z,6.93
2017-10-15T14:45:17.992Z,7.63
2017-10-15T14:47:45.563Z,7.43
2017-10-15T14:50:15.412Z,7.82
2017-10-15T14:52:42.947Z,6.73
2017-10-15T14:55:11.295Z,7.20
2017-10-15T14:57:38.832Z,6.57
2017-10-15T15:00:06.363Z,6.90
2017-10-15T15:02:33.921Z,7.43
2017-10-15T15:05:01.464Z,8.20
2017-10-15T15:07:29.770Z,6.25
2017-10-15T15:09:57.322Z,6.33
2017-10-15T15:12:24.861Z,7.00
2017-10-15T15:14:52.391Z,8.53
2017-10-15T15:17:19.979Z,7.10
2017-10-15T15:19:48.285Z,7.15
2017-10-15T15:22:16.388Z,8.07
2017-10-15T15:24:43.955Z,7.50
2017-10-15T15:27:11.479Z,7.03
2017-10-15T15:29:39.012Z,8.47
2017-10-15T15:32:06.564Z,8.20
2017-10-15T15:34:35.463Z,8.30
2017-10-15T15:37:03.756Z,8.30
2017-10-15T15:39:31.491Z,7.23
2017-10-15T15:41:59.024Z,7.40
2017-10-15T15:44:26.547Z,7.00
2017-10-15T15:46:54.095Z,7.00
2017-10-15T15:49:22.388Z,7.90
2017-10-15T15:51:49.931Z,7.63
2017-10-15T15:54:18.251Z,7.80
2017-10-15T15:56:45.788Z,6.90
2017-10-15T15:59:14.552Z,7.70
2017-10-15T16:01:42.123Z,7.63
2017-10-15T16:04:09.660Z,8.53
2017-10-15T16:06:37.964Z,8.70
2017-10-15T16:09:05.540Z,8.20
2017-10-15T16:11:33.123Z,9.15
2017-10-15T16:14:00.720Z,9.97
2017-10-15T16:16:29.052Z,8.40
2017-10-15T16:18:56.593Z,9.80
2017-10-15T16:21:24.138Z,9.85
2017-10-15T16:23:51.757Z,10.73
2017-10-15T16:26:20.377Z,9.75
2017-10-15T16:28:47.972Z,10.47
2017-10-15T16:31:17.307Z,10.88
2017-10-15T16:33:44.941Z,12.50
2017-10-15T16:36:12.752Z,11.27
2017-10-15T16:38:41.087Z,10.63
2017-10-15T16:41:08.635Z,10.97
2017-10-15T16:43:36.259Z,11.90
2017-10-15T16:46:03.846Z,11.20
2017-10-15T16:48:31.384Z,12.83
2017-10-15T16:50:59.687Z,11.80
2017-10-15T16:53:27.256Z,12.23
2017-10-15T16:55:54.796Z,11.80
2017-10-15T16:58:22.340Z,12.63
2017-10-15T17:00:50.668Z,12.30
2017-10-15T17:03:18.308Z,13.30
2017-10-15T17:05:46.224Z,13.90
2017-10-15T17:08:25.749Z,16.58
2017-10-15T17:14:08.645Z,19.90
2017-10-15T17:16:36.190Z,31.23
2017-10-15T17:19:03.798Z,32.27
2017-10-15T17:21:31.403Z,27.77
2017-10-15T17:23:59.703Z,24.70
2017-10-15T17:26:27.244Z,23.98
2017-10-15T17:28:54.856Z,21.80
2017-10-15T17:31:22.411Z,18.35
2017-10-15T17:33:49.993Z,16.30
2017-10-15T17:36:18.036Z,16.05
2017-10-15T17:38:45.572Z,15.60
2017-10-15T17:41:24.400Z,13.43
2017-10-15T17:50:08.582Z,15.60
2017-10-15T17:52:36.134Z,13.73
2017-10-15T17:55:03.678Z,14.60
2017-10-15T17:57:31.274Z,13.38
2017-10-15T17:59:58.844Z,12.33
2017-10-15T18:02:28.859Z,11.82
2017-10-15T18:04:56.548Z,10.50
2017-10-15T18:07:24.960Z,11.07
2017-10-15T18:09:52.507Z,10.38
2017-10-15T18:12:20.094Z,10.98
2017-10-15T18:14:47.634Z,10.00
2017-10-15T18:17:17.262Z,10.48
2017-10-15T18:19:44.833Z,9.90
2017-10-15T18:22:12.365Z,11.30
2017-10-15T18:24:39.924Z,9.70
2017-10-15T18:27:07.497Z,11.12
2017-10-15T18:29:35.053Z,11.07
2017-10-15T18:32:02.592Z,13.70
2017-10-15T18:34:30.951Z,12.03
2017-10-15T18:36:58.606Z,12.80
2017-10-15T18:39:26.147Z,13.47
2017-10-15T18:41:53.720Z,12.87
2017-10-15T18:44:21.275Z,12.13
2017-10-15T18:46:48.840Z,12.27
2017-10-15T18:49:16.668Z,11.87
2017-10-15T18:51:44.284Z,11.37
2017-10-15T18:54:13.724Z,11.20
2017-10-15T18:56:41.326Z,11.50
2017-10-15T18:59:08.896Z,12.30
2017-10-15T19:01:38.435Z,11.67
2017-10-15T19:04:06.013Z,12.20
2017-10-15T19:06:33.552Z,11.45
2017-10-15T19:09:01.092Z,11.77
2017-10-15T19:11:28.696Z,12.70
2017-10-15T19:13:57.007Z,12.20
2017-10-15T19:16:24.544Z,13.52
2017-10-15T19:18:52.166Z,14.10
2017-10-15T19:21:19.801Z,12.57
2017-10-15T19:23:47.472Z,12.80
2017-10-15T19:26:16.484Z,11.80
2017-10-15T19:28:44.789Z,13.27
2017-10-15T19:31:12.335Z,12.10
2017-10-15T19:33:40.529Z,13.23
2017-10-15T19:36:08.093Z,12.37
2017-10-15T19:38:36.616Z,12.73
2017-10-15T19:41:04.223Z,15.20
2017-10-15T19:43:32.896Z,13.70
2017-10-15T19:46:00.451Z,15.30
2017-10-15T19:48:28.805Z,16.67
2017-10-15T19:50:56.449Z,17.80
2017-10-15T19:53:23.996Z,16.03
2017-10-15T19:55:51.564Z,17.45
2017-10-15T19:58:19.877Z,15.53
2017-10-15T20:00:48.909Z,14.87
2017-10-15T20:03:16.618Z,15.45
2017-10-15T20:05:44.166Z,15.63
2017-10-15T20:08:11.828Z,17.00
2017-10-15T20:10:39.453Z,15.70
2017-10-15T20:13:07.028Z,15.20
2017-10-15T20:15:35.328Z,14.93
2017-10-15T20:18:02.997Z,13.10
2017-10-15T20:20:30.594Z,14.67
2017-10-15T20:22:58.200Z,13.47
2017-10-15T20:25:25.811Z,14.47
2017-10-15T20:27:54.165Z,13.93
2017-10-15T20:30:21.710Z,13.35
2017-10-15T20:32:49.640Z,14.67
2017-10-15T20:35:17.310Z,14.30
2017-10-15T20:37:44.895Z,12.10
2017-10-15T20:40:12.843Z,13.07
2017-10-15T20:42:40.437Z,14.40
2017-10-15T20:45:08.024Z,13.30
2017-10-15T20:47:36.956Z,13.90
2017-10-15T20:50:04.504Z,12.97
2017-10-15T20:52:32.044Z,13.17
2017-10-15T20:55:00.821Z,11.97
2017-10-15T20:57:28.359Z,12.03
2017-10-15T20:59:55.900Z,12.45
2017-10-15T21:02:23.488Z,11.65
2017-10-15T21:04:51.047Z,13.30
2017-10-15T21:07:18.654Z,12.65
2017-10-15T21:09:46.244Z,15.20
2017-10-15T21:12:24.467Z,14.50
2017-10-15T21:17:50.669Z,15.47
2017-10-15T21:20:18.213Z,14.13
2017-10-15T21:22:46.540Z,13.03
2017-10-15T21:25:16.012Z,11.10
2017-10-15T21:27:43.556Z,13.38
2017-10-15T21:30:11.115Z,12.20
2017-10-15T21:32:39.438Z,14.40
2017-10-15T21:35:07.248Z,14.67
2017-10-15T21:37:35.561Z,13.97
2017-10-15T21:40:03.128Z,12.27
2017-10-15T21:42:31.567Z,12.27
2017-10-15T21:44:59.100Z,12.20
2017-10-15T21:47:26.713Z,10.93
2017-10-15T21:49:54.257Z,10.70
2017-10-15T21:52:21.804Z,11.23
2017-10-15T21:54:49.637Z,11.17
2017-10-15T21:57:17.203Z,11.03
2017-10-15T21:59:44.744Z,11.53
2017-10-15T22:02:12.303Z,11.00
2017-10-15T22:04:39.848Z,11.17
2017-10-15T22:07:07.388Z,10.27
2017-10-15T22:09:34.992Z,11.30
2017-10-15T22:12:02.535Z,10.75
2017-10-15T22:14:30.087Z,10.23
2017-10-15T22:16:57.656Z,10.83
2017-10-15T22:19:25.192Z,9.23
2017-10-15T22:24:54.237Z,10.00
2017-10-15T22:27:21.823Z,10.00
2017-10-15T22:29:49.359Z,10.47
2017-10-15T22:32:16.920Z,10.00
2017-10-15T22:34:44.484Z,10.63
2017-10-15T22:37:12.023Z,9.93
2017-10-15T22:39:39.558Z,9.37
2017-10-15T22:42:07.902Z,9.40
2017-10-15T22:44:35.592Z,9.27
2017-10-15T22:47:03.887Z,8.53
2017-10-15T22:49:31.877Z,9.20
2017-10-15T22:51:59.412Z,8.75
2017-10-15T22:54:26.943Z,8.57
2017-10-15T22:56:54.519Z,10.53
2017-10-15T22:59:22.826Z,9.87
2017-10-15T23:01:50.356Z,9.60
2017-10-15T23:04:18.691Z,8.57
2017-10-15T23:06:46.228Z,8.73
2017-10-15T23:09:27.089Z,8.88
2017-10-15T23:15:22.155Z,7.80
2017-10-15T23:17:49.687Z,9.23
2017-10-15T23:20:17.992Z,9.80
2017-10-15T23:22:45.551Z,8.63
2017-10-15T23:25:24.396Z,8.80
2017-10-15T23:36:11.988Z,8.88
2017-10-15T23:38:40.298Z,8.82
2017-10-15T23:41:07.831Z,8.10
2017-10-15T23:43:35.404Z,8.45
2017-10-15T23:46:03.179Z,8.27
2017-10-15T23:48:30.716Z,9.03
2017-10-15T23:50:59.041Z,7.90
2017-10-15T23:53:26.573Z,8.30
2017-10-15T23:55:54.115Z,8.30
2017-10-15T23:58:22.471Z,7.30
